Nearby METAR Reports

 

KMTN - Baltimore/Martin, Maryland, USA
Distance from station: SSE 8mi, 13km
Updated: Thu, 05-May-2016 7:45am EDT
Mist, Overcast
Mist, Overcast
 Wind from N
Wind: N 7 mph , 11 km/h
Temperature: 52°F , 11°C
Dew Point: 52°F , 11°C
Humidity: 100%
Barometer: 29.69 inHg , 1005.4 hPa
Summary: Mist
Clouds: Overcast
Visibility: 4 miles , 6 km
Cloud details: Mostly cloudy 800 ft
Overcast 1300 ft
2016/05/05 11:45 KMTN 051145Z 36006KT 4SM BR BKN008 OVC013 11/11 A2969
KDMH - Baltimore/Dwntwn, Maryland, USA
Distance from station: SW 12mi, 19km
Updated: Thu, 05-May-2016 7:54am EDT

 
Temperature: 52°F , 11°C
Dew Point: 46°F , 8°C
Humidity: 82%
Barometer: 29.68 inHg , 1005.1 hPa
2016/05/05 11:54 KDMH 051154Z AUTO 11/08 A2968 RMK AO1 SLP051 60001 70001 T01060083 10106 20100 55001
 
KBWI - Balto/Wash Intl, Maryland, USA
Distance from station: SSW 20mi, 33km
Updated: Thu, 05-May-2016 8:16am EDT
Light drizzle, Mist, Overcast
Light drizzle, Mist, Overcast
 Wind from NE
Wind: NE 9 mph , 15 km/h
Temperature: 50°F , 10°C
Wind Chill: 46°F , 8°C
Dew Point: 48°F , 9°C
Humidity: 94%
Barometer: 29.67 inHg , 1004.7 hPa
Summary: Light drizzle, Mist
Clouds: Overcast
Visibility: 1 1/2 miles , 2 km
Cloud details: Partly cloudy 400 ft
Mostly cloudy 700 ft
Overcast 1200 ft
2016/05/05 12:16 KBWI 051216Z 04008KT 1 1/2SM -DZ BR SCT004 BKN007 OVC012 10/09 A2967 RMK AO2 P0000 T01000089
KDMW - Carroll Cnty, Maryland, USA
Distance from station: WNW 30mi, 48km
Updated: Thu, 05-May-2016 8:10am EDT
Haze, Mostly cloudy
Haze, Mostly cloudy
 Wind from NE
Wind: NE 7 mph , 11 km/h
Summary: Haze
Clouds: Mostly cloudy
Visibility: 5 miles , 8 km
Cloud details: Mostly cloudy 800 ft
2016/05/05 12:10 KDMW 051210Z AUTO 04006KT 5SM HZ BKN008 OVC01 09/M02 A2968 RMK AO2
 
KNAK - Annapolis/Naval, Maryland, USA
Distance from station: S 30mi, 48km
Updated: Thu, 05-May-2016 7:54am EDT
Mist, Overcast
Mist, Overcast
 Wind from NE
Wind: NE 9 mph , 15 km/h
Temperature: 52°F , 11°C
Dew Point: 48°F , 9°C
Humidity: 88%
Barometer: 29.66 inHg , 1004.4 hPa
Summary: Mist
Clouds: Overcast
Visibility: 5 miles , 8 km
Cloud details: Overcast 1500 ft
2016/05/05 11:54 KNAK 051154Z AUTO 05008KT 5SM BR OVC015 11/09 A2966 RMK AO2 SLP046 T01060089 10106 20100 53001 $
KW29 - Stevensville, Maryland, USA
Distance from station: SSE 31mi, 50km
Updated: Tue, 26-Apr-2016 2:56pm EDT
NOT Current

 
Temperature: 79°F , 26°C
Dew Point: 50°F , 10°C
Humidity: 37%
Barometer: 29.68 inHg , 1005.1 hPa
Visibility: 10 miles , 16 km
2016/04/26 18:56 KW29 261856Z 10SM 26/10 A2968 RMK AO1
 
KCGS - College Park, Maryland, USA
Distance from station: SW 38mi, 61km
Updated: Thu, 05-May-2016 8:10am EDT
Overcast
Overcast
 Wind from calm
Wind: Calm
Temperature: 50°F , 10°C
Dew Point: 46°F , 8°C
Humidity: 88%
Barometer: 29.67 inHg , 1004.7 hPa
Clouds: Overcast
Visibility: 5 miles , 8 km
Cloud details: Mostly cloudy 800 ft
Mostly cloudy 1200 ft
Overcast 1800 ft
2016/05/05 12:10 KCGS 051210Z AUTO 00000KT 5SM BKN008 BKN012 OVC018 10/08 A2967 RMK AO1
KGAI - Gaithersburg, Maryland, USA
Distance from station: WSW 40mi, 65km
Updated: Thu, 05-May-2016 8:15am EDT
Overcast
Overcast
 Wind from NE
Wind: NE 5 mph , 7 km/h
Temperature: 48°F , 9°C
Wind Chill: 46°F , 8°C
Dew Point: 46°F , 8°C
Humidity: 94%
Barometer: 29.71 inHg , 1006.1 hPa
Clouds: Overcast
Visibility: 2 1/2 miles , 2 km
Cloud details: Mostly cloudy 600 ft
Overcast 1500 ft
2016/05/05 12:15 KGAI 051215Z AUTO 05004KT 2 1/2SM BKN006 OVC015 09/08 A2971 RMK AO1
 
KTHV - York, Pennsylvania, USA
Distance from station: NNW 40mi, 65km
Updated: Thu, 05-May-2016 8:06am EDT
Mist, Overcast
Mist, Overcast
 Wind from NE
Wind: NE 8 mph , 13 km/h
Temperature: 50°F , 10°C
Wind Chill: 47°F , 8°C
Dew Point: 46°F , 8°C
Humidity: 88%
Barometer: 29.68 inHg , 1005.1 hPa
Summary: Mist
Clouds: Overcast
Visibility: 6 miles , 10 km
Cloud details: Overcast 900 ft
2016/05/05 12:06 KTHV 051206Z AUTO 04007KT 6SM BR OVC009 10/08 A2968 RMK AO2 CIG 006V012 T01000083
KFDK - Frederick, Maryland, USA
Distance from station: W 47mi, 75km
Updated: Thu, 05-May-2016 8:15am EDT
Mist, Overcast
Mist, Overcast
 Wind from NNE
Wind: NNE 6 mph , 9 km/h
Temperature: 50°F , 10°C
Wind Chill: 48°F , 9°C
Dew Point: 50°F , 10°C
Humidity: 100%
Barometer: 29.71 inHg , 1006.1 hPa
Summary: Mist
Clouds: Overcast
Visibility: 2 1/2 miles , 2 km
Cloud details: Mostly cloudy 1000 ft
Overcast 1400 ft
2016/05/05 12:15 KFDK 051215Z 03005KT 2 1/2SM BR BKN010 OVC014 10/10 A2971
 
KESN - Easton/Newnam, Maryland, USA
Distance from station: SSE 48mi, 78km
Updated: Thu, 05-May-2016 7:50am EDT
Overcast
Overcast
 Wind from NE
Wind: NE 8 mph , 13 km/h
Barometer: 29.69 inHg , 1005.4 hPa
Clouds: Overcast
Visibility: 10 miles , 16 km
Cloud details: Mostly cloudy 1300 ft
Overcast 1900 ft
2016/05/05 11:50 KESN 051150Z 04007KT 10SM BKN013 OVC019 A2969
KDCA - Washington/Natl, Washington D.c., USA
Distance from station: SW 49mi, 79km
Updated: Thu, 05-May-2016 7:59am EDT
Light drizzle, Mist, Overcast
Light drizzle, Mist, Overcast
 Wind from NE
Wind: NE 9 mph , 15 km/h
Temperature: 52°F , 11°C
Dew Point: 48°F , 9°C
Humidity: 88%
Barometer: 29.67 inHg , 1004.7 hPa
Summary: Light drizzle, Mist
Clouds: Overcast
Visibility: 3 miles , 5 km
Cloud details: Mostly cloudy 700 ft
Overcast 1600 ft
2016/05/05 11:59 KDCA 051159Z 04008KT 3SM -DZ BR BKN007 OVC016 11/09 A2967 RMK AO2 P0000 T01060094
 
KLNS - Lancaster, Pennsylvania, USA
Distance from station: N 49mi, 79km
Updated: Thu, 05-May-2016 7:53am EDT
Overcast
Overcast
 Wind from NE
Wind: NE 9 mph , 15 km/h
Temperature: 48°F , 9°C
Wind Chill: 44°F , 7°C
Dew Point: 45°F , 7°C
Humidity: 87%
Barometer: 29.68 inHg , 1005.1 hPa
Clouds: Overcast
Visibility: 8 miles , 13 km
Cloud details: Mostly cloudy 1000 ft
Mostly cloudy 1400 ft
Overcast 5000 ft
2016/05/05 11:53 KLNS 051153Z 04008KT 8SM BKN010 BKN014 OVC050 09/07 A2968 RMK AO2 CIG 008V012 SLP052 70007 T00890072 10094 20089 55005
KILG - Wilmington, Delaware, USA
Distance from station: ENE 50mi, 81km
Updated: Thu, 05-May-2016 7:51am EDT
Overcast
Overcast
 Wind from NE
Wind: NE 10 mph , 17 km/h
Temperature: 48°F , 9°C
Wind Chill: 44°F , 7°C
Dew Point: 45°F , 7°C
Humidity: 87%
Barometer: 29.68 inHg , 1005.1 hPa
Clouds: Overcast
Visibility: 10 miles , 16 km
Cloud details: Overcast 1100 ft
2016/05/05 11:51 KILG 051151Z 04009KT 10SM OVC011 09/07 A2968 RMK AO2 SLP050 T00940067 10100 20094 56003 $